sensor_id;sensor_type;location;lat;lon;timestamp;pressure;altitude;pressure_sealevel;temperature;humidity
11415;BME280;5763;42.714;23.244;2023-01-05T00:00:52;95392.66;;;8.86;78.73
11415;BME280;5763;42.714;23.244;2023-01-05T00:03:18;95393.75;;;8.89;78.88
11415;BME280;5763;42.714;23.244;2023-01-05T00:05:45;95390.78;;;8.83;79.04
11415;BME280;5763;42.714;23.244;2023-01-05T00:08:12;95396.66;;;8.82;79.16
11415;BME280;5763;42.714;23.244;2023-01-05T00:10:39;95391.91;;;8.86;79.23
11415;BME280;5763;42.714;23.244;2023-01-05T00:13:25;95381.22;;;8.91;78.15
11415;BME280;5763;42.714;23.244;2023-01-05T00:16:11;95376.81;;;8.97;76.66
11415;BME280;5763;42.714;23.244;2023-01-05T00:18:56;95376.81;;;8.97;76.19
11415;BME280;5763;42.714;23.244;2023-01-05T00:21:40;95371.00;;;8.95;76.14
11415;BME280;5763;42.714;23.244;2023-01-05T00:24:25;95371.50;;;8.90;76.40
11415;BME280;5763;42.714;23.244;2023-01-05T00:26:53;95372.00;;;8.85;76.84
11415;BME280;5763;42.714;23.244;2023-01-05T00:29:21;95370.91;;;8.83;76.84
11415;BME280;5763;42.714;23.244;2023-01-05T00:31:48;95353.47;;;8.77;77.46
11415;BME280;5763;42.714;23.244;2023-01-05T00:34:15;95363.66;;;8.92;77.77
11415;BME280;5763;42.714;23.244;2023-01-05T00:36:42;95357.44;;;8.92;77.57
11415;BME280;5763;42.714;23.244;2023-01-05T00:39:08;95348.31;;;8.98;77.32
11415;BME280;5763;42.714;23.244;2023-01-05T00:41:35;95355.16;;;9.06;77.48
11415;BME280;5763;42.714;23.244;2023-01-05T00:44:02;95355.38;;;9.15;76.94
11415;BME280;5763;42.714;23.244;2023-01-05T00:46:30;95351.03;;;9.18;76.78
11415;BME280;5763;42.714;23.244;2023-01-05T00:48:57;95345.47;;;9.21;76.41
11415;BME280;5763;42.714;23.244;2023-01-05T00:51:23;95352.47;;;9.22;76.58
11415;BME280;5763;42.714;23.244;2023-01-05T00:53:50;95353.78;;;9.34;76.11
11415;BME280;5763;42.714;23.244;2023-01-05T00:56:17;95350.25;;;9.33;75.95
11415;BME280;5763;42.714;23.244;2023-01-05T00:58:44;95354.88;;;9.20;76.80
11415;BME280;5763;42.714;23.244;2023-01-05T01:01:11;95347.69;;;9.10;77.05
11415;BME280;5763;42.714;23.244;2023-01-05T01:03:40;95344.94;;;9.10;77.39
11415;BME280;5763;42.714;23.244;2023-01-05T01:06:07;95350.00;;;9.12;77.46
11415;BME280;5763;42.714;23.244;2023-01-05T01:08:34;95356.72;;;9.23;76.47
11415;BME280;5763;42.714;23.244;2023-01-05T01:11:03;95354.09;;;9.20;76.39
11415;BME280;5763;42.714;23.244;2023-01-05T01:13:31;95346.16;;;9.25;76.46
11415;BME280;5763;42.714;23.244;2023-01-05T01:16:04;95349.53;;;9.13;76.47
11415;BME280;5763;42.714;23.244;2023-01-05T01:18:31;95353.34;;;9.19;76.78
11415;BME280;5763;42.714;23.244;2023-01-05T01:20:59;95346.16;;;9.25;76.87
11415;BME280;5763;42.714;23.244;2023-01-05T01:23:26;95340.78;;;9.22;76.67
11415;BME280;5763;42.714;23.244;2023-01-05T01:25:53;95330.63;;;9.22;76.69
11415;BME280;5763;42.714;23.244;2023-01-05T01:28:21;95332.00;;;9.30;76.11
11415;BME280;5763;42.714;23.244;2023-01-05T01:30:47;95330.63;;;9.22;76.33
11415;BME280;5763;42.714;23.244;2023-01-05T01:33:14;95325.53;;;9.24;76.27
11415;BME280;5763;42.714;23.244;2023-01-05T01:35:41;95317.75;;;9.23;76.03
11415;BME280;5763;42.714;23.244;2023-01-05T01:38:09;95307.25;;;9.21;75.89
11415;BME280;5763;42.714;23.244;2023-01-05T01:40:39;95312.78;;;9.18;75.94
11415;BME280;5763;42.714;23.244;2023-01-05T01:43:11;95311.19;;;9.20;76.08
11415;BME280;5763;42.714;23.244;2023-01-05T01:45:38;95298.63;;;9.23;75.89
11415;BME280;5763;42.714;23.244;2023-01-05T01:48:06;95302.63;;;9.18;76.29
11415;BME280;5763;42.714;23.244;2023-01-05T01:50:38;95296.94;;;9.29;75.86
11415;BME280;5763;42.714;23.244;2023-01-05T01:53:10;95291.47;;;9.29;76.15
11415;BME280;5763;42.714;23.244;2023-01-05T01:55:38;95295.13;;;9.38;75.63
11415;BME280;5763;42.714;23.244;2023-01-05T01:58:07;95283.28;;;9.29;75.76
11415;BME280;5763;42.714;23.244;2023-01-05T02:00:39;95277.47;;;9.27;75.90
11415;BME280;5763;42.714;23.244;2023-01-05T02:03:07;95278.75;;;9.22;75.91
11415;BME280;5763;42.714;23.244;2023-01-05T02:05:35;95276.09;;;9.35;75.53
11415;BME280;5763;42.714;23.244;2023-01-05T02:08:03;95278.66;;;9.42;75.58
11415;BME280;5763;42.714;23.244;2023-01-05T02:10:50;95266.97;;;9.41;75.23
11415;BME280;5763;42.714;23.244;2023-01-05T02:13:30;95262.63;;;9.44;75.67
11415;BME280;5763;42.714;23.244;2023-01-05T02:16:06;95263.88;;;9.39;75.47
11415;BME280;5763;42.714;23.244;2023-01-05T02:18:48;95262.25;;;9.42;75.44
11415;BME280;5763;42.714;23.244;2023-01-05T02:21:21;95262.19;;;9.45;75.17
11415;BME280;5763;42.714;23.244;2023-01-05T02:24:17;95266.97;;;9.41;75.10
11415;BME280;5763;42.714;23.244;2023-01-05T02:32:59;95266.09;;;9.44;75.23
11415;BME280;5763;42.714;23.244;2023-01-05T02:35:36;95258.06;;;9.53;74.79
11415;BME280;5763;42.714;23.244;2023-01-05T02:38:10;95264.84;;;9.49;75.02
11415;BME280;5763;42.714;23.244;2023-01-05T02:40:43;95263.56;;;9.37;75.32
11415;BME280;5763;42.714;23.244;2023-01-05T02:43:14;95253.50;;;9.34;75.90
11415;BME280;5763;42.714;23.244;2023-01-05T02:45:41;95254.84;;;9.26;75.89
11415;BME280;5763;42.714;23.244;2023-01-05T02:48:09;95236.16;;;9.25;75.42
11415;BME280;5763;42.714;23.244;2023-01-05T02:50:41;95244.78;;;9.07;76.20
11415;BME280;5763;42.714;23.244;2023-01-05T02:53:13;95236.06;;;9.28;75.46
11415;BME280;5763;42.714;23.244;2023-01-05T02:55:45;95242.22;;;9.32;75.49
11415;BME280;5763;42.714;23.244;2023-01-05T02:58:15;95241.88;;;9.46;74.53
11415;BME280;5763;42.714;23.244;2023-01-05T03:00:46;95208.09;;;9.24;74.36
11415;BME280;5763;42.714;23.244;2023-01-05T03:03:19;95236.91;;;9.57;74.08
11415;BME280;5763;42.714;23.244;2023-01-05T03:05:51;95225.66;;;9.55;74.10
11415;BME280;5763;42.714;23.244;2023-01-05T03:08:21;95215.25;;;9.50;74.56
11415;BME280;5763;42.714;23.244;2023-01-05T03:10:58;95216.56;;;9.58;74.22
11415;BME280;5763;42.714;23.244;2023-01-05T03:13:45;95206.53;;;9.55;74.39
11415;BME280;5763;42.714;23.244;2023-01-05T03:16:18;95197.28;;;9.49;74.35
11415;BME280;5763;42.714;23.244;2023-01-05T03:18:50;95153.56;;;9.21;74.34
11415;BME280;5763;42.714;23.244;2023-01-05T03:21:32;95175.84;;;9.35;74.50
11415;BME280;5763;42.714;23.244;2023-01-05T03:24:16;95179.94;;;9.27;74.87
11415;BME280;5763;42.714;23.244;2023-01-05T03:27:01;95176.19;;;9.21;74.99
11415;BME280;5763;42.714;23.244;2023-01-05T03:29:46;95182.50;;;9.18;75.38
11415;BME280;5763;42.714;23.244;2023-01-05T03:32:33;95178.50;;;9.23;75.32
11415;BME280;5763;42.714;23.244;2023-01-05T03:35:20;95174.56;;;9.24;75.42
11415;BME280;5763;42.714;23.244;2023-01-05T03:38:03;95173.03;;;9.23;75.18
11415;BME280;5763;42.714;23.244;2023-01-05T03:40:33;95170.91;;;9.14;75.28
11415;BME280;5763;42.714;23.244;2023-01-05T03:43:02;95175.41;;;9.21;75.18
11415;BME280;5763;42.714;23.244;2023-01-05T03:45:34;95175.84;;;9.19;75.04
11415;BME280;5763;42.714;23.244;2023-01-05T03:48:02;95174.06;;;9.13;74.62
11415;BME280;5763;42.714;23.244;2023-01-05T03:50:30;95171.44;;;9.09;74.75
11415;BME280;5763;42.714;23.244;2023-01-05T03:52:57;95172.59;;;9.08;74.97
11415;BME280;5763;42.714;23.244;2023-01-05T03:55:24;95173.06;;;9.07;74.71
11415;BME280;5763;42.714;23.244;2023-01-05T03:57:51;95180.66;;;8.99;74.75
11415;BME280;5763;42.714;23.244;2023-01-05T04:00:18;95183.47;;;8.96;74.28
11415;BME280;5763;42.714;23.244;2023-01-05T04:02:45;95176.53;;;8.91;74.58
11415;BME280;5763;42.714;23.244;2023-01-05T04:05:12;95179.53;;;8.81;75.54
11415;BME280;5763;42.714;23.244;2023-01-05T04:07:40;95182.19;;;8.84;75.50
11415;BME280;5763;42.714;23.244;2023-01-05T04:10:08;95167.06;;;8.80;75.34
11415;BME280;5763;42.714;23.244;2023-01-05T04:12:35;95166.47;;;8.72;75.40
11415;BME280;5763;42.714;23.244;2023-01-05T04:15:02;95158.28;;;8.72;75.18
11415;BME280;5763;42.714;23.244;2023-01-05T04:17:29;95174.84;;;8.65;75.06
11415;BME280;5763;42.714;23.244;2023-01-05T04:19:56;95152.81;;;8.56;75.12
11415;BME280;5763;42.714;23.244;2023-01-05T04:22:23;95157.09;;;8.57;75.78
11415;BME280;5763;42.714;23.244;2023-01-05T04:24:51;95159.47;;;8.55;74.27
11415;BME280;5763;42.714;23.244;2023-01-05T04:27:18;95157.53;;;8.56;74.36
11415;BME280;5763;42.714;23.244;2023-01-05T04:29:44;95129.19;;;8.34;74.39
11415;BME280;5763;42.714;23.244;2023-01-05T04:32:11;95162.19;;;8.39;74.80
11415;BME280;5763;42.714;23.244;2023-01-05T04:34:38;95150.00;;;8.44;74.29
11415;BME280;5763;42.714;23.244;2023-01-05T04:37:05;95160.66;;;8.38;74.24
11415;BME280;5763;42.714;23.244;2023-01-05T04:39:31;95162.00;;;8.30;74.10
11415;BME280;5763;42.714;23.244;2023-01-05T04:41:59;95127.59;;;8.01;74.66
11415;BME280;5763;42.714;23.244;2023-01-05T04:44:26;95167.81;;;8.13;75.29
11415;BME280;5763;42.714;23.244;2023-01-05T04:46:53;95166.59;;;8.14;75.26
11415;BME280;5763;42.714;23.244;2023-01-05T04:49:20;95166.78;;;8.07;75.54
11415;BME280;5763;42.714;23.244;2023-01-05T04:51:47;95153.94;;;8.07;74.99
11415;BME280;5763;42.714;23.244;2023-01-05T04:54:14;95157.56;;;8.01;75.44
11415;BME280;5763;42.714;23.244;2023-01-05T04:56:41;95159.50;;;8.00;75.31
11415;BME280;5763;42.714;23.244;2023-01-05T04:59:10;95168.81;;;8.03;75.53
11415;BME280;5763;42.714;23.244;2023-01-05T05:01:36;95161.56;;;7.96;75.84
11415;BME280;5763;42.714;23.244;2023-01-05T05:04:03;95170.56;;;7.93;76.03
11415;BME280;5763;42.714;23.244;2023-01-05T05:06:30;95177.84;;;8.00;75.42
11415;BME280;5763;42.714;23.244;2023-01-05T05:08:57;95178.75;;;7.93;75.16
11415;BME280;5763;42.714;23.244;2023-01-05T05:11:23;95177.28;;;7.89;75.48
11415;BME280;5763;42.714;23.244;2023-01-05T05:13:50;95181.66;;;7.83;76.24
11415;BME280;5763;42.714;23.244;2023-01-05T05:16:18;95182.44;;;7.83;76.05
11415;BME280;5763;42.714;23.244;2023-01-05T05:18:45;95181.81;;;7.76;75.41
11415;BME280;5763;42.714;23.244;2023-01-05T05:21:12;95181.91;;;7.72;76.02
11415;BME280;5763;42.714;23.244;2023-01-05T05:23:38;95177.97;;;7.73;75.80
11415;BME280;5763;42.714;23.244;2023-01-05T05:26:05;95176.94;;;7.67;76.20
11415;BME280;5763;42.714;23.244;2023-01-05T05:28:32;95169.53;;;7.68;76.10
11415;BME280;5763;42.714;23.244;2023-01-05T05:30:59;95171.06;;;7.69;76.44
11415;BME280;5763;42.714;23.244;2023-01-05T05:33:27;95169.47;;;7.71;75.68
11415;BME280;5763;42.714;23.244;2023-01-05T05:35:54;95164.16;;;7.64;76.77
11415;BME280;5763;42.714;23.244;2023-01-05T05:38:21;95156.34;;;7.66;77.69
11415;BME280;5763;42.714;23.244;2023-01-05T05:40:48;95154.09;;;7.61;78.15
11415;BME280;5763;42.714;23.244;2023-01-05T05:43:15;95148.28;;;7.59;78.27
11415;BME280;5763;42.714;23.244;2023-01-05T05:45:42;95140.41;;;7.45;77.98
11415;BME280;5763;42.714;23.244;2023-01-05T05:48:09;95147.41;;;7.46;77.25
11415;BME280;5763;42.714;23.244;2023-01-05T05:50:38;95135.31;;;7.47;77.09
11415;BME280;5763;42.714;23.244;2023-01-05T05:53:04;95134.97;;;7.45;78.08
11415;BME280;5763;42.714;23.244;2023-01-05T05:55:31;95139.44;;;7.55;78.46
11415;BME280;5763;42.714;23.244;2023-01-05T05:57:59;95141.31;;;7.58;76.46
11415;BME280;5763;42.714;23.244;2023-01-05T06:00:26;95134.19;;;7.45;76.70
11415;BME280;5763;42.714;23.244;2023-01-05T06:02:53;95136.03;;;7.51;75.90
11415;BME280;5763;42.714;23.244;2023-01-05T06:05:20;95132.03;;;7.56;75.51
11415;BME280;5763;42.714;23.244;2023-01-05T06:07:48;95132.75;;;7.40;76.26
11415;BME280;5763;42.714;23.244;2023-01-05T06:10:14;95134.59;;;7.43;75.91
11415;BME280;5763;42.714;23.244;2023-01-05T06:12:41;95122.47;;;7.48;76.17
11415;BME280;5763;42.714;23.244;2023-01-05T06:15:09;95121.00;;;7.43;76.43
11415;BME280;5763;42.714;23.244;2023-01-05T06:17:36;95124.00;;;7.49;77.10
11415;BME280;5763;42.714;23.244;2023-01-05T06:20:03;95110.16;;;7.59;78.69
11415;BME280;5763;42.714;23.244;2023-01-05T06:22:30;95113.97;;;7.65;76.72
11415;BME280;5763;42.714;23.244;2023-01-05T06:24:58;95110.78;;;7.67;77.68
11415;BME280;5763;42.714;23.244;2023-01-05T06:27:25;95131.94;;;7.59;77.46
11415;BME280;5763;42.714;23.244;2023-01-05T06:29:52;95105.78;;;7.65;76.71
11415;BME280;5763;42.714;23.244;2023-01-05T06:32:18;95109.25;;;7.66;76.38
11415;BME280;5763;42.714;23.244;2023-01-05T06:34:45;95108.06;;;7.67;76.37
11415;BME280;5763;42.714;23.244;2023-01-05T06:37:12;95119.03;;;7.63;77.21
11415;BME280;5763;42.714;23.244;2023-01-05T06:39:39;95115.81;;;7.68;76.85
11415;BME280;5763;42.714;23.244;2023-01-05T06:42:07;95118.13;;;7.70;76.14
11415;BME280;5763;42.714;23.244;2023-01-05T06:44:34;95126.72;;;7.68;76.05
11415;BME280;5763;42.714;23.244;2023-01-05T06:47:01;95122.81;;;7.69;75.41
11415;BME280;5763;42.714;23.244;2023-01-05T06:49:28;95117.34;;;7.69;75.42
11415;BME280;5763;42.714;23.244;2023-01-05T06:51:55;95113.31;;;7.77;75.53
11415;BME280;5763;42.714;23.244;2023-01-05T06:54:21;95103.94;;;7.78;75.54
11415;BME280;5763;42.714;23.244;2023-01-05T06:56:48;95111.91;;;7.89;75.26
11415;BME280;5763;42.714;23.244;2023-01-05T06:59:16;95100.13;;;7.92;75.01
11415;BME280;5763;42.714;23.244;2023-01-05T07:01:43;95103.84;;;8.01;74.95
11415;BME280;5763;42.714;23.244;2023-01-05T07:04:10;95102.63;;;8.22;74.39
11415;BME280;5763;42.714;23.244;2023-01-05T07:06:37;95104.59;;;8.37;74.75
11415;BME280;5763;42.714;23.244;2023-01-05T07:09:03;95104.50;;;8.57;74.41
11415;BME280;5763;42.714;23.244;2023-01-05T07:11:30;95097.44;;;8.75;73.96
11415;BME280;5763;42.714;23.244;2023-01-05T07:13:57;95104.75;;;8.94;73.07
11415;BME280;5763;42.714;23.244;2023-01-05T07:16:25;95065.44;;;8.92;72.64
11415;BME280;5763;42.714;23.244;2023-01-05T07:18:52;95097.06;;;9.34;72.37
11415;BME280;5763;42.714;23.244;2023-01-05T07:21:19;95099.16;;;9.42;72.32
11415;BME280;5763;42.714;23.244;2023-01-05T07:23:45;95099.88;;;9.59;71.13
11415;BME280;5763;42.714;23.244;2023-01-05T07:26:13;95102.22;;;9.73;70.36
11415;BME280;5763;42.714;23.244;2023-01-05T07:28:39;95094.66;;;9.77;70.41
11415;BME280;5763;42.714;23.244;2023-01-05T07:31:06;95088.00;;;9.90;70.33
11415;BME280;5763;42.714;23.244;2023-01-05T07:33:35;95094.41;;;10.12;69.53
11415;BME280;5763;42.714;23.244;2023-01-05T07:36:03;95094.31;;;10.28;68.89
11415;BME280;5763;42.714;23.244;2023-01-05T07:38:30;95086.84;;;10.41;68.68
11415;BME280;5763;42.714;23.244;2023-01-05T07:40:58;95087.38;;;10.61;68.11
11415;BME280;5763;42.714;23.244;2023-01-05T07:43:25;95082.44;;;10.81;67.66
11415;BME280;5763;42.714;23.244;2023-01-05T07:45:56;95077.69;;;10.94;67.31
11415;BME280;5763;42.714;23.244;2023-01-05T07:48:22;95085.44;;;11.08;66.93
11415;BME280;5763;42.714;23.244;2023-01-05T07:50:50;95074.53;;;11.17;66.37
11415;BME280;5763;42.714;23.244;2023-01-05T07:53:17;95001.16;;;10.91;66.21
11415;BME280;5763;42.714;23.244;2023-01-05T07:55:54;95066.00;;;11.49;65.88
11415;BME280;5763;42.714;23.244;2023-01-05T07:58:21;95064.25;;;11.64;65.19
11415;BME280;5763;42.714;23.244;2023-01-05T08:00:48;95059.50;;;11.77;64.61
11415;BME280;5763;42.714;23.244;2023-01-05T08:03:14;95061.72;;;11.91;63.74
11415;BME280;5763;42.714;23.244;2023-01-05T08:05:41;95065.75;;;12.08;63.77
11415;BME280;5763;42.714;23.244;2023-01-05T08:08:10;95060.84;;;12.03;63.68
11415;BME280;5763;42.714;23.244;2023-01-05T08:10:37;95060.75;;;12.16;63.60
11415;BME280;5763;42.714;23.244;2023-01-05T08:13:04;95063.44;;;12.37;62.54
11415;BME280;5763;42.714;23.244;2023-01-05T08:15:49;95061.53;;;12.56;62.36
11415;BME280;5763;42.714;23.244;2023-01-05T08:18:16;95063.19;;;12.53;61.49
11415;BME280;5763;42.714;23.244;2023-01-05T08:20:48;95069.34;;;12.75;61.56
11415;BME280;5763;42.714;23.244;2023-01-05T08:23:16;95056.31;;;13.06;60.56
11415;BME280;5763;42.714;23.244;2023-01-05T08:25:43;95063.03;;;13.23;59.98
11415;BME280;5763;42.714;23.244;2023-01-05T08:28:10;95065.78;;;13.23;59.87
11415;BME280;5763;42.714;23.244;2023-01-05T08:30:37;95070.34;;;13.53;58.89
11415;BME280;5763;42.714;23.244;2023-01-05T08:33:04;95060.69;;;13.85;57.71
11415;BME280;5763;42.714;23.244;2023-01-05T08:35:31;95070.13;;;14.02;56.88
11415;BME280;5763;42.714;23.244;2023-01-05T08:37:58;95065.22;;;14.15;56.65
11415;BME280;5763;42.714;23.244;2023-01-05T08:40:26;95060.78;;;14.26;56.38
11415;BME280;5763;42.714;23.244;2023-01-05T08:42:53;95063.75;;;14.46;55.20
11415;BME280;5763;42.714;23.244;2023-01-05T08:45:20;95051.19;;;14.45;55.66
11415;BME280;5763;42.714;23.244;2023-01-05T08:47:46;95052.00;;;14.69;54.00
11415;BME280;5763;42.714;23.244;2023-01-05T08:50:13;95050.09;;;14.84;53.82
11415;BME280;5763;42.714;23.244;2023-01-05T08:52:40;95046.88;;;15.33;51.88
11415;BME280;5763;42.714;23.244;2023-01-05T08:55:07;95042.94;;;15.63;50.59
11415;BME280;5763;42.714;23.244;2023-01-05T08:57:35;95038.50;;;15.80;50.23
11415;BME280;5763;42.714;23.244;2023-01-05T09:00:02;95034.41;;;15.75;50.17
11415;BME280;5763;42.714;23.244;2023-01-05T09:02:30;95018.91;;;15.78;48.47
11415;BME280;5763;42.714;23.244;2023-01-05T09:04:56;95016.72;;;15.96;48.26
11415;BME280;5763;42.714;23.244;2023-01-05T09:07:23;95012.50;;;15.86;48.45
11415;BME280;5763;42.714;23.244;2023-01-05T09:09:52;95004.66;;;16.28;47.33
11415;BME280;5763;42.714;23.244;2023-01-05T09:12:19;94988.44;;;16.50;46.67
11415;BME280;5763;42.714;23.244;2023-01-05T09:14:47;94978.81;;;16.60;44.85
11415;BME280;5763;42.714;23.244;2023-01-05T09:17:14;94971.56;;;16.83;43.96
11415;BME280;5763;42.714;23.244;2023-01-05T09:19:41;94954.78;;;16.86;44.47
11415;BME280;5763;42.714;23.244;2023-01-05T09:22:07;94954.38;;;16.93;44.12
11415;BME280;5763;42.714;23.244;2023-01-05T09:24:34;94943.44;;;17.04;43.54
11415;BME280;5763;42.714;23.244;2023-01-05T09:27:01;94951.31;;;16.91;43.76
11415;BME280;5763;42.714;23.244;2023-01-05T09:29:29;94944.81;;;16.94;43.55
11415;BME280;5763;42.714;23.244;2023-01-05T09:31:58;94943.53;;;16.90;42.73
11415;BME280;5763;42.714;23.244;2023-01-05T09:34:24;94942.31;;;16.76;43.63
11415;BME280;5763;42.714;23.244;2023-01-05T09:36:51;94940.47;;;16.88;43.68
11415;BME280;5763;42.714;23.244;2023-01-05T09:39:18;94930.16;;;17.28;41.08
11415;BME280;5763;42.714;23.244;2023-01-05T09:41:47;94926.69;;;17.59;40.39
11415;BME280;5763;42.714;23.244;2023-01-05T09:44:22;94911.34;;;17.58;41.39
11415;BME280;5763;42.714;23.244;2023-01-05T09:46:53;94900.94;;;17.78;39.93
11415;BME280;5763;42.714;23.244;2023-01-05T09:49:23;94896.16;;;17.79;40.18
11415;BME280;5763;42.714;23.244;2023-01-05T09:51:56;94900.19;;;18.09;39.69
11415;BME280;5763;42.714;23.244;2023-01-05T09:54:26;94894.28;;;17.96;39.96
11415;BME280;5763;42.714;23.244;2023-01-05T09:56:54;94889.44;;;17.86;39.17
11415;BME280;5763;42.714;23.244;2023-01-05T09:59:27;94877.59;;;17.85;39.10
11415;BME280;5763;42.714;23.244;2023-01-05T10:01:58;94867.91;;;18.01;38.94
11415;BME280;5763;42.714;23.244;2023-01-05T10:04:28;94880.00;;;18.03;39.04
11415;BME280;5763;42.714;23.244;2023-01-05T10:06:58;94888.34;;;17.77;38.54
11415;BME280;5763;42.714;23.244;2023-01-05T10:09:29;94874.28;;;17.81;38.13
11415;BME280;5763;42.714;23.244;2023-01-05T10:12:02;94870.06;;;17.91;38.01
11415;BME280;5763;42.714;23.244;2023-01-05T10:14:49;94876.69;;;17.99;37.98
11415;BME280;5763;42.714;23.244;2023-01-05T10:17:20;94880.53;;;17.76;38.17
11415;BME280;5763;42.714;23.244;2023-01-05T10:19:48;94878.44;;;17.97;37.93
11415;BME280;5763;42.714;23.244;2023-01-05T10:22:26;94870.31;;;17.88;37.53
11415;BME280;5763;42.714;23.244;2023-01-05T10:25:00;94857.31;;;17.99;37.62
11415;BME280;5763;42.714;23.244;2023-01-05T10:27:32;94859.66;;;18.17;38.20
11415;BME280;5763;42.714;23.244;2023-01-05T10:30:09;94852.84;;;18.49;38.09
11415;BME280;5763;42.714;23.244;2023-01-05T10:32:45;94853.75;;;18.88;37.79
11415;BME280;5763;42.714;23.244;2023-01-05T10:35:33;94845.28;;;19.25;36.27
11415;BME280;5763;42.714;23.244;2023-01-05T10:38:13;94834.72;;;19.51;35.83
11415;BME280;5763;42.714;23.244;2023-01-05T10:40:52;94834.72;;;19.95;34.17
11415;BME280;5763;42.714;23.244;2023-01-05T10:46:21;94823.84;;;19.97;33.59
11415;BME280;5763;42.714;23.244;2023-01-05T10:48:48;94822.56;;;20.20;33.23
11415;BME280;5763;42.714;23.244;2023-01-05T10:51:17;94826.56;;;20.41;32.87
11415;BME280;5763;42.714;23.244;2023-01-05T10:53:44;94806.81;;;20.50;32.38
11415;BME280;5763;42.714;23.244;2023-01-05T10:56:13;94811.31;;;20.64;32.20
11415;BME280;5763;42.714;23.244;2023-01-05T10:58:42;94821.25;;;20.43;31.51
11415;BME280;5763;42.714;23.244;2023-01-05T11:01:21;94797.00;;;20.43;31.50
11415;BME280;5763;42.714;23.244;2023-01-05T11:03:51;94797.81;;;20.16;32.82
11415;BME280;5763;42.714;23.244;2023-01-05T11:06:21;94798.84;;;20.13;32.15
11415;BME280;5763;42.714;23.244;2023-01-05T11:08:49;94796.59;;;19.73;32.44
11415;BME280;5763;42.714;23.244;2023-01-05T11:11:22;94795.56;;;19.76;32.17
11415;BME280;5763;42.714;23.244;2023-01-05T11:13:52;94797.84;;;19.23;33.31
11415;BME280;5763;42.714;23.244;2023-01-05T11:16:21;94788.03;;;19.49;32.80
11415;BME280;5763;42.714;23.244;2023-01-05T11:18:51;94794.31;;;19.72;32.26
11415;BME280;5763;42.714;23.244;2023-01-05T11:21:21;94796.38;;;19.44;32.21
11415;BME280;5763;42.714;23.244;2023-01-05T11:23:49;94804.13;;;19.01;32.95
11415;BME280;5763;42.714;23.244;2023-01-05T11:26:25;94778.19;;;19.26;33.03
11415;BME280;5763;42.714;23.244;2023-01-05T11:29:00;94778.19;;;19.65;32.37
11415;BME280;5763;42.714;23.244;2023-01-05T11:31:32;94774.09;;;19.88;32.26
11415;BME280;5763;42.714;23.244;2023-01-05T11:34:05;94778.38;;;19.94;32.54
11415;BME280;5763;42.714;23.244;2023-01-05T11:36:34;94786.97;;;20.13;31.81
11415;BME280;5763;42.714;23.244;2023-01-05T11:39:01;94777.09;;;20.80;30.37
11415;BME280;5763;42.714;23.244;2023-01-05T11:41:28;94790.06;;;20.61;30.93
11415;BME280;5763;42.714;23.244;2023-01-05T11:43:55;94785.09;;;20.43;31.32
11415;BME280;5763;42.714;23.244;2023-01-05T11:46:25;94768.59;;;22.25;28.90
11415;BME280;5763;42.714;23.244;2023-01-05T11:49:05;94759.19;;;23.58;27.31
11415;BME280;5763;42.714;23.244;2023-01-05T11:51:36;94767.59;;;23.89;25.93
11415;BME280;5763;42.714;23.244;2023-01-05T11:54:03;94759.88;;;23.95;25.82
11415;BME280;5763;42.714;23.244;2023-01-05T11:56:30;94765.69;;;25.22;24.12
11415;BME280;5763;42.714;23.244;2023-01-05T11:58:57;94764.44;;;25.56;23.37
11415;BME280;5763;42.714;23.244;2023-01-05T12:01:57;94760.88;;;23.66;25.53
11415;BME280;5763;42.714;23.244;2023-01-05T12:04:43;94764.53;;;21.14;29.34
11415;BME280;5763;42.714;23.244;2023-01-05T12:07:22;94761.72;;;20.11;31.41
11415;BME280;5763;42.714;23.244;2023-01-05T12:09:56;94761.84;;;21.62;29.29
11415;BME280;5763;42.714;23.244;2023-01-05T12:12:41;94757.47;;;23.23;27.13
11415;BME280;5763;42.714;23.244;2023-01-05T12:15:31;94750.53;;;24.06;26.06
11415;BME280;5763;42.714;23.244;2023-01-05T12:18:11;94755.41;;;21.78;28.88
11415;BME280;5763;42.714;23.244;2023-01-05T12:20:54;94741.50;;;20.05;31.66
11415;BME280;5763;42.714;23.244;2023-01-05T12:23:56;94744.06;;;18.76;33.29
11415;BME280;5763;42.714;23.244;2023-01-05T12:26:26;94712.81;;;18.81;33.32
11415;BME280;5763;42.714;23.244;2023-01-05T12:29:10;94709.41;;;20.61;30.76
11415;BME280;5763;42.714;23.244;2023-01-05T12:32:05;94690.00;;;23.19;27.57
11415;BME280;5763;42.714;23.244;2023-01-05T12:34:42;94693.28;;;23.36;26.72
11415;BME280;5763;42.714;23.244;2023-01-05T12:37:25;94698.25;;;21.66;29.22
11415;BME280;5763;42.714;23.244;2023-01-05T12:40:18;94698.44;;;19.60;32.03
11415;BME280;5763;42.714;23.244;2023-01-05T12:42:56;94698.44;;;18.77;33.75
11415;BME280;5763;42.714;23.244;2023-01-05T12:45:33;94700.03;;;18.14;34.72
11415;BME280;5763;42.714;23.244;2023-01-05T12:48:07;94713.50;;;17.85;35.55
11415;BME280;5763;42.714;23.244;2023-01-05T12:50:38;94707.81;;;17.57;35.88
11415;BME280;5763;42.714;23.244;2023-01-05T12:53:15;94708.91;;;17.76;35.98
11415;BME280;5763;42.714;23.244;2023-01-05T12:55:48;94707.28;;;17.58;36.39
11415;BME280;5763;42.714;23.244;2023-01-05T12:58:22;94700.97;;;19.36;33.87
11415;BME280;5763;42.714;23.244;2023-01-05T13:00:53;94697.31;;;21.58;29.97
11415;BME280;5763;42.714;23.244;2023-01-05T13:03:25;94714.09;;;23.04;28.02
11415;BME280;5763;42.714;23.244;2023-01-05T13:05:58;94708.31;;;23.15;27.56
11415;BME280;5763;42.714;23.244;2023-01-05T13:08:32;94703.63;;;23.41;27.19
11415;BME280;5763;42.714;23.244;2023-01-05T13:11:09;94691.03;;;23.35;27.23
11415;BME280;5763;42.714;23.244;2023-01-05T13:13:41;94711.09;;;23.33;27.51
11415;BME280;5763;42.714;23.244;2023-01-05T13:16:14;94719.97;;;23.00;28.36
11415;BME280;5763;42.714;23.244;2023-01-05T13:18:48;94713.50;;;22.55;29.46
11415;BME280;5763;42.714;23.244;2023-01-05T13:21:19;94714.81;;;22.06;29.33
11415;BME280;5763;42.714;23.244;2023-01-05T13:23:49;94718.69;;;21.50;30.10
11415;BME280;5763;42.714;23.244;2023-01-05T13:26:19;94708.94;;;21.32;30.61
11415;BME280;5763;42.714;23.244;2023-01-05T13:28:48;94701.63;;;21.00;31.58
11415;BME280;5763;42.714;23.244;2023-01-05T13:31:40;94700.69;;;20.40;32.55